sensor_id;sensor_type;location;lat;lon;timestamp;P1;durP1;ratioP1;P2;durP2;ratioP2
61477;SDS011;47345;52.334;10.392;2024-01-15T00:02:04;15.10;;;8.70;;
61477;SDS011;47345;52.334;10.392;2024-01-15T00:04:37;14.20;;;8.20;;
61477;SDS011;47345;52.334;10.392;2024-01-15T00:07:08;11.90;;;7.00;;
61477;SDS011;47345;52.334;10.392;2024-01-15T00:09:39;15.60;;;8.50;;
61477;SDS011;47345;52.334;10.392;2024-01-15T00:12:09;12.50;;;7.40;;
61477;SDS011;47345;52.334;10.392;2024-01-15T00:14:40;12.70;;;7.70;;
61477;SDS011;47345;52.334;10.392;2024-01-15T00:17:10;9.70;;;6.10;;
61477;SDS011;47345;52.334;10.392;2024-01-15T00:19:41;11.30;;;7.20;;
61477;SDS011;47345;52.334;10.392;2024-01-15T00:22:12;15.20;;;8.20;;
61477;SDS011;47345;52.334;10.392;2024-01-15T00:24:42;10.10;;;6.70;;
61477;SDS011;47345;52.334;10.392;2024-01-15T00:27:13;11.00;;;6.60;;
61477;SDS011;47345;52.334;10.392;2024-01-15T00:29:43;11.90;;;6.90;;
61477;SDS011;47345;52.334;10.392;2024-01-15T00:32:14;9.70;;;6.50;;
61477;SDS011;47345;52.334;10.392;2024-01-15T00:34:44;10.20;;;6.60;;
61477;SDS011;47345;52.334;10.392;2024-01-15T00:37:15;12.40;;;6.70;;
61477;SDS011;47345;52.334;10.392;2024-01-15T00:39:46;11.00;;;6.70;;
61477;SDS011;47345;52.334;10.392;2024-01-15T00:42:16;10.10;;;6.40;;
61477;SDS011;47345;52.334;10.392;2024-01-15T00:44:47;10.10;;;5.60;;
61477;SDS011;47345;52.334;10.392;2024-01-15T00:47:19;9.10;;;5.80;;
61477;SDS011;47345;52.334;10.392;2024-01-15T00:49:49;13.10;;;6.40;;
61477;SDS011;47345;52.334;10.392;2024-01-15T00:52:20;7.20;;;4.50;;
61477;SDS011;47345;52.334;10.392;2024-01-15T00:54:50;7.20;;;4.60;;
61477;SDS011;47345;52.334;10.392;2024-01-15T00:57:21;12.10;;;6.80;;
61477;SDS011;47345;52.334;10.392;2024-01-15T00:59:52;11.90;;;5.70;;
61477;SDS011;47345;52.334;10.392;2024-01-15T01:02:22;10.60;;;5.70;;
61477;SDS011;47345;52.334;10.392;2024-01-15T01:04:52;12.20;;;5.40;;
61477;SDS011;47345;52.334;10.392;2024-01-15T01:07:23;9.10;;;5.70;;
61477;SDS011;47345;52.334;10.392;2024-01-15T01:09:54;9.80;;;5.20;;
61477;SDS011;47345;52.334;10.392;2024-01-15T01:12:24;8.40;;;4.80;;
61477;SDS011;47345;52.334;10.392;2024-01-15T01:14:55;9.00;;;4.30;;
61477;SDS011;47345;52.334;10.392;2024-01-15T01:17:27;10.00;;;4.40;;
61477;SDS011;47345;52.334;10.392;2024-01-15T01:19:58;6.50;;;4.40;;
61477;SDS011;47345;52.334;10.392;2024-01-15T01:22:32;7.20;;;3.90;;
61477;SDS011;47345;52.334;10.392;2024-01-15T01:25:03;7.30;;;3.70;;
61477;SDS011;47345;52.334;10.392;2024-01-15T01:27:35;6.80;;;3.50;;
61477;SDS011;47345;52.334;10.392;2024-01-15T01:30:06;8.60;;;3.90;;
61477;SDS011;47345;52.334;10.392;2024-01-15T01:32:37;7.60;;;3.90;;
61477;SDS011;47345;52.334;10.392;2024-01-15T01:35:08;8.50;;;4.40;;
61477;SDS011;47345;52.334;10.392;2024-01-15T01:37:39;7.60;;;3.90;;
61477;SDS011;47345;52.334;10.392;2024-01-15T01:40:10;6.40;;;3.90;;
61477;SDS011;47345;52.334;10.392;2024-01-15T01:42:41;7.70;;;4.30;;
61477;SDS011;47345;52.334;10.392;2024-01-15T01:45:12;6.20;;;3.80;;
61477;SDS011;47345;52.334;10.392;2024-01-15T01:47:42;7.00;;;3.80;;
61477;SDS011;47345;52.334;10.392;2024-01-15T01:50:13;5.90;;;3.80;;
61477;SDS011;47345;52.334;10.392;2024-01-15T01:52:44;9.70;;;4.30;;
61477;SDS011;47345;52.334;10.392;2024-01-15T01:55:15;6.40;;;3.30;;
61477;SDS011;47345;52.334;10.392;2024-01-15T01:57:47;6.40;;;3.00;;
61477;SDS011;47345;52.334;10.392;2024-01-15T02:00:18;7.30;;;3.30;;
61477;SDS011;47345;52.334;10.392;2024-01-15T02:02:48;7.40;;;3.50;;
61477;SDS011;47345;52.334;10.392;2024-01-15T02:05:19;4.80;;;3.00;;
61477;SDS011;47345;52.334;10.392;2024-01-15T02:07:51;6.10;;;3.20;;
61477;SDS011;47345;52.334;10.392;2024-01-15T02:10:21;6.20;;;3.80;;
61477;SDS011;47345;52.334;10.392;2024-01-15T02:12:52;9.50;;;3.40;;
61477;SDS011;47345;52.334;10.392;2024-01-15T02:15:22;10.30;;;4.00;;
61477;SDS011;47345;52.334;10.392;2024-01-15T02:17:57;8.50;;;3.60;;
61477;SDS011;47345;52.334;10.392;2024-01-15T02:20:29;7.40;;;3.70;;
61477;SDS011;47345;52.334;10.392;2024-01-15T02:23:07;10.50;;;3.30;;
61477;SDS011;47345;52.334;10.392;2024-01-15T02:25:39;7.70;;;3.30;;
61477;SDS011;47345;52.334;10.392;2024-01-15T02:28:14;12.60;;;3.50;;
61477;SDS011;47345;52.334;10.392;2024-01-15T02:30:46;8.80;;;2.90;;
61477;SDS011;47345;52.334;10.392;2024-01-15T02:33:16;6.70;;;3.00;;
61477;SDS011;47345;52.334;10.392;2024-01-15T02:35:47;4.20;;;2.50;;
61477;SDS011;47345;52.334;10.392;2024-01-15T02:38:18;5.70;;;2.60;;
61477;SDS011;47345;52.334;10.392;2024-01-15T02:40:49;9.80;;;3.00;;
61477;SDS011;47345;52.334;10.392;2024-01-15T02:43:20;4.60;;;2.80;;
61477;SDS011;47345;52.334;10.392;2024-01-15T02:45:50;6.80;;;2.60;;
61477;SDS011;47345;52.334;10.392;2024-01-15T02:48:21;7.30;;;2.30;;
61477;SDS011;47345;52.334;10.392;2024-01-15T02:50:52;9.70;;;3.20;;
61477;SDS011;47345;52.334;10.392;2024-01-15T02:53:22;7.50;;;2.90;;
61477;SDS011;47345;52.334;10.392;2024-01-15T02:55:53;7.00;;;2.80;;
61477;SDS011;47345;52.334;10.392;2024-01-15T02:58:23;14.00;;;3.00;;
61477;SDS011;47345;52.334;10.392;2024-01-15T03:00:54;7.50;;;2.70;;
61477;SDS011;47345;52.334;10.392;2024-01-15T03:03:24;6.20;;;3.00;;
61477;SDS011;47345;52.334;10.392;2024-01-15T03:05:55;7.60;;;3.10;;
61477;SDS011;47345;52.334;10.392;2024-01-15T03:08:26;9.10;;;3.30;;
61477;SDS011;47345;52.334;10.392;2024-01-15T03:10:56;11.20;;;2.70;;
61477;SDS011;47345;52.334;10.392;2024-01-15T03:13:27;6.10;;;3.10;;
61477;SDS011;47345;52.334;10.392;2024-01-15T03:15:57;6.90;;;3.90;;
61477;SDS011;47345;52.334;10.392;2024-01-15T03:18:28;10.00;;;2.90;;
61477;SDS011;47345;52.334;10.392;2024-01-15T03:20:59;6.60;;;2.80;;
61477;SDS011;47345;52.334;10.392;2024-01-15T03:23:29;14.00;;;3.60;;
61477;SDS011;47345;52.334;10.392;2024-01-15T03:26:00;10.40;;;3.20;;
61477;SDS011;47345;52.334;10.392;2024-01-15T03:28:30;6.30;;;2.50;;
61477;SDS011;47345;52.334;10.392;2024-01-15T03:31:01;11.90;;;2.60;;
61477;SDS011;47345;52.334;10.392;2024-01-15T03:33:31;11.60;;;3.00;;
61477;SDS011;47345;52.334;10.392;2024-01-15T03:36:02;9.70;;;2.60;;
61477;SDS011;47345;52.334;10.392;2024-01-15T03:38:34;9.50;;;3.00;;
61477;SDS011;47345;52.334;10.392;2024-01-15T03:41:07;8.40;;;2.70;;
61477;SDS011;47345;52.334;10.392;2024-01-15T03:43:37;3.80;;;2.10;;
61477;SDS011;47345;52.334;10.392;2024-01-15T03:46:08;9.10;;;2.90;;
61477;SDS011;47345;52.334;10.392;2024-01-15T03:48:38;4.30;;;2.40;;
61477;SDS011;47345;52.334;10.392;2024-01-15T03:51:09;7.80;;;2.70;;
61477;SDS011;47345;52.334;10.392;2024-01-15T03:53:39;10.40;;;2.70;;
61477;SDS011;47345;52.334;10.392;2024-01-15T03:56:10;12.20;;;2.60;;
61477;SDS011;47345;52.334;10.392;2024-01-15T03:58:41;9.10;;;2.50;;
61477;SDS011;47345;52.334;10.392;2024-01-15T04:01:11;3.20;;;2.00;;
61477;SDS011;47345;52.334;10.392;2024-01-15T04:03:42;12.60;;;2.50;;
61477;SDS011;47345;52.334;10.392;2024-01-15T04:06:13;3.10;;;2.00;;
61477;SDS011;47345;52.334;10.392;2024-01-15T04:08:43;3.80;;;2.10;;
61477;SDS011;47345;52.334;10.392;2024-01-15T04:11:14;5.50;;;1.90;;
61477;SDS011;47345;52.334;10.392;2024-01-15T04:13:44;6.80;;;2.00;;
61477;SDS011;47345;52.334;10.392;2024-01-15T04:16:14;7.60;;;2.10;;
61477;SDS011;47345;52.334;10.392;2024-01-15T04:18:45;3.70;;;1.70;;
61477;SDS011;47345;52.334;10.392;2024-01-15T04:21:16;4.80;;;2.20;;
61477;SDS011;47345;52.334;10.392;2024-01-15T04:23:47;5.30;;;1.90;;
61477;SDS011;47345;52.334;10.392;2024-01-15T04:26:17;6.60;;;2.30;;
61477;SDS011;47345;52.334;10.392;2024-01-15T04:28:47;8.00;;;2.00;;
61477;SDS011;47345;52.334;10.392;2024-01-15T04:31:24;6.20;;;1.90;;
61477;SDS011;47345;52.334;10.392;2024-01-15T04:33:55;8.70;;;3.30;;
61477;SDS011;47345;52.334;10.392;2024-01-15T04:36:26;6.70;;;2.20;;
61477;SDS011;47345;52.334;10.392;2024-01-15T04:38:56;5.30;;;2.00;;
61477;SDS011;47345;52.334;10.392;2024-01-15T04:41:27;5.70;;;2.20;;
61477;SDS011;47345;52.334;10.392;2024-01-15T04:43:57;9.30;;;2.40;;
61477;SDS011;47345;52.334;10.392;2024-01-15T04:46:29;6.20;;;2.00;;
61477;SDS011;47345;52.334;10.392;2024-01-15T04:48:59;5.00;;;2.00;;
61477;SDS011;47345;52.334;10.392;2024-01-15T04:51:30;4.40;;;1.90;;
61477;SDS011;47345;52.334;10.392;2024-01-15T04:54:01;12.30;;;3.50;;
61477;SDS011;47345;52.334;10.392;2024-01-15T04:56:31;10.20;;;2.10;;
61477;SDS011;47345;52.334;10.392;2024-01-15T04:59:02;7.60;;;2.90;;
61477;SDS011;47345;52.334;10.392;2024-01-15T05:01:32;5.90;;;2.20;;
61477;SDS011;47345;52.334;10.392;2024-01-15T05:04:03;6.60;;;2.20;;
61477;SDS011;47345;52.334;10.392;2024-01-15T05:06:33;5.40;;;2.50;;
61477;SDS011;47345;52.334;10.392;2024-01-15T05:09:04;3.40;;;1.60;;
61477;SDS011;47345;52.334;10.392;2024-01-15T05:11:34;3.00;;;1.70;;
61477;SDS011;47345;52.334;10.392;2024-01-15T05:14:05;5.90;;;2.00;;
61477;SDS011;47345;52.334;10.392;2024-01-15T05:16:35;7.80;;;2.50;;
61477;SDS011;47345;52.334;10.392;2024-01-15T05:19:08;3.90;;;1.90;;
61477;SDS011;47345;52.334;10.392;2024-01-15T05:21:38;3.80;;;1.70;;
61477;SDS011;47345;52.334;10.392;2024-01-15T05:24:09;5.40;;;1.90;;
61477;SDS011;47345;52.334;10.392;2024-01-15T05:26:40;4.30;;;2.90;;
61477;SDS011;47345;52.334;10.392;2024-01-15T05:29:10;9.70;;;2.90;;
61477;SDS011;47345;52.334;10.392;2024-01-15T05:31:41;4.00;;;2.20;;
61477;SDS011;47345;52.334;10.392;2024-01-15T05:34:11;4.80;;;2.20;;
61477;SDS011;47345;52.334;10.392;2024-01-15T05:36:42;5.40;;;2.70;;
61477;SDS011;47345;52.334;10.392;2024-01-15T05:39:15;4.70;;;2.50;;
61477;SDS011;47345;52.334;10.392;2024-01-15T05:41:49;9.00;;;2.50;;
61477;SDS011;47345;52.334;10.392;2024-01-15T05:44:19;8.90;;;2.50;;
61477;SDS011;47345;52.334;10.392;2024-01-15T05:46:49;7.10;;;2.10;;
61477;SDS011;47345;52.334;10.392;2024-01-15T05:49:20;9.50;;;2.30;;
61477;SDS011;47345;52.334;10.392;2024-01-15T05:51:51;4.40;;;2.00;;
61477;SDS011;47345;52.334;10.392;2024-01-15T05:54:21;5.90;;;2.10;;
61477;SDS011;47345;52.334;10.392;2024-01-15T05:56:52;5.30;;;2.40;;
61477;SDS011;47345;52.334;10.392;2024-01-15T05:59:22;5.20;;;2.50;;
61477;SDS011;47345;52.334;10.392;2024-01-15T06:01:53;7.80;;;2.60;;
61477;SDS011;47345;52.334;10.392;2024-01-15T06:04:24;10.10;;;2.60;;
61477;SDS011;47345;52.334;10.392;2024-01-15T06:06:54;11.30;;;2.80;;
61477;SDS011;47345;52.334;10.392;2024-01-15T06:09:25;3.00;;;2.10;;
61477;SDS011;47345;52.334;10.392;2024-01-15T06:11:56;9.90;;;2.20;;
61477;SDS011;47345;52.334;10.392;2024-01-15T06:14:26;3.20;;;2.00;;
61477;SDS011;47345;52.334;10.392;2024-01-15T06:16:57;5.10;;;2.10;;
61477;SDS011;47345;52.334;10.392;2024-01-15T06:19:27;5.80;;;2.40;;
61477;SDS011;47345;52.334;10.392;2024-01-15T06:21:58;7.40;;;2.20;;
61477;SDS011;47345;52.334;10.392;2024-01-15T06:24:28;5.10;;;1.90;;
61477;SDS011;47345;52.334;10.392;2024-01-15T06:26:59;2.50;;;1.90;;
61477;SDS011;47345;52.334;10.392;2024-01-15T06:29:29;2.40;;;2.10;;
61477;SDS011;47345;52.334;10.392;2024-01-15T06:32:00;3.40;;;1.80;;
61477;SDS011;47345;52.334;10.392;2024-01-15T06:34:31;5.30;;;2.40;;
61477;SDS011;47345;52.334;10.392;2024-01-15T06:37:01;5.30;;;2.10;;
61477;SDS011;47345;52.334;10.392;2024-01-15T06:39:32;9.40;;;2.10;;
61477;SDS011;47345;52.334;10.392;2024-01-15T06:42:03;8.80;;;2.40;;
61477;SDS011;47345;52.334;10.392;2024-01-15T06:44:33;4.00;;;2.10;;
61477;SDS011;47345;52.334;10.392;2024-01-15T06:47:05;5.70;;;2.40;;
61477;SDS011;47345;52.334;10.392;2024-01-15T06:49:35;4.90;;;2.30;;
61477;SDS011;47345;52.334;10.392;2024-01-15T06:52:06;5.00;;;2.60;;
61477;SDS011;47345;52.334;10.392;2024-01-15T06:54:37;3.80;;;2.40;;
61477;SDS011;47345;52.334;10.392;2024-01-15T06:57:07;4.80;;;2.20;;
61477;SDS011;47345;52.334;10.392;2024-01-15T06:59:38;4.00;;;2.30;;
61477;SDS011;47345;52.334;10.392;2024-01-15T07:02:08;5.00;;;2.40;;
61477;SDS011;47345;52.334;10.392;2024-01-15T07:04:39;7.00;;;2.30;;
61477;SDS011;47345;52.334;10.392;2024-01-15T07:07:10;4.90;;;2.40;;
61477;SDS011;47345;52.334;10.392;2024-01-15T07:09:41;6.40;;;2.90;;
61477;SDS011;47345;52.334;10.392;2024-01-15T07:12:11;6.70;;;2.30;;
61477;SDS011;47345;52.334;10.392;2024-01-15T07:14:42;3.60;;;2.10;;
61477;SDS011;47345;52.334;10.392;2024-01-15T07:17:12;3.80;;;2.30;;
61477;SDS011;47345;52.334;10.392;2024-01-15T07:19:43;7.60;;;2.70;;
61477;SDS011;47345;52.334;10.392;2024-01-15T07:22:14;4.60;;;2.40;;
61477;SDS011;47345;52.334;10.392;2024-01-15T07:24:45;3.70;;;2.00;;
61477;SDS011;47345;52.334;10.392;2024-01-15T07:27:15;5.80;;;3.00;;
61477;SDS011;47345;52.334;10.392;2024-01-15T07:29:46;7.30;;;2.30;;
61477;SDS011;47345;52.334;10.392;2024-01-15T07:32:16;6.40;;;2.70;;
61477;SDS011;47345;52.334;10.392;2024-01-15T07:34:48;6.60;;;2.80;;
61477;SDS011;47345;52.334;10.392;2024-01-15T07:37:19;4.10;;;2.30;;
61477;SDS011;47345;52.334;10.392;2024-01-15T07:39:51;2.70;;;2.20;;
61477;SDS011;47345;52.334;10.392;2024-01-15T07:42:22;4.70;;;2.30;;
61477;SDS011;47345;52.334;10.392;2024-01-15T07:44:52;6.40;;;2.80;;
61477;SDS011;47345;52.334;10.392;2024-01-15T07:47:23;6.00;;;2.40;;
61477;SDS011;47345;52.334;10.392;2024-01-15T07:49:53;6.40;;;2.50;;
61477;SDS011;47345;52.334;10.392;2024-01-15T07:52:28;5.60;;;2.30;;
61477;SDS011;47345;52.334;10.392;2024-01-15T07:54:59;5.30;;;2.10;;
61477;SDS011;47345;52.334;10.392;2024-01-15T07:57:31;4.40;;;2.00;;
61477;SDS011;47345;52.334;10.392;2024-01-15T08:00:04;8.00;;;2.70;;
61477;SDS011;47345;52.334;10.392;2024-01-15T08:02:37;5.80;;;2.50;;
61477;SDS011;47345;52.334;10.392;2024-01-15T08:05:08;8.00;;;2.90;;
61477;SDS011;47345;52.334;10.392;2024-01-15T08:07:38;9.60;;;2.70;;
61477;SDS011;47345;52.334;10.392;2024-01-15T08:10:09;6.10;;;2.40;;
61477;SDS011;47345;52.334;10.392;2024-01-15T08:12:41;7.50;;;2.80;;
61477;SDS011;47345;52.334;10.392;2024-01-15T08:15:12;5.90;;;2.70;;
61477;SDS011;47345;52.334;10.392;2024-01-15T08:17:42;7.00;;;2.80;;
61477;SDS011;47345;52.334;10.392;2024-01-15T08:20:13;5.20;;;2.70;;
61477;SDS011;47345;52.334;10.392;2024-01-15T08:22:44;5.10;;;3.20;;
61477;SDS011;47345;52.334;10.392;2024-01-15T08:25:16;4.50;;;2.40;;
61477;SDS011;47345;52.334;10.392;2024-01-15T08:27:46;5.50;;;2.70;;
61477;SDS011;47345;52.334;10.392;2024-01-15T08:30:17;5.80;;;2.70;;
61477;SDS011;47345;52.334;10.392;2024-01-15T08:32:48;3.30;;;2.50;;
61477;SDS011;47345;52.334;10.392;2024-01-15T08:35:19;5.60;;;2.80;;
61477;SDS011;47345;52.334;10.392;2024-01-15T08:37:50;3.90;;;2.20;;
61477;SDS011;47345;52.334;10.392;2024-01-15T08:40:21;4.50;;;2.90;;
61477;SDS011;47345;52.334;10.392;2024-01-15T08:42:52;9.20;;;2.90;;
61477;SDS011;47345;52.334;10.392;2024-01-15T08:45:22;9.20;;;2.40;;
61477;SDS011;47345;52.334;10.392;2024-01-15T08:47:54;6.60;;;2.30;;
61477;SDS011;47345;52.334;10.392;2024-01-15T08:50:25;5.70;;;2.70;;
61477;SDS011;47345;52.334;10.392;2024-01-15T08:52:55;10.20;;;3.10;;
61477;SDS011;47345;52.334;10.392;2024-01-15T08:55:26;10.70;;;3.20;;
61477;SDS011;47345;52.334;10.392;2024-01-15T08:57:56;9.10;;;2.60;;
61477;SDS011;47345;52.334;10.392;2024-01-15T09:00:27;8.90;;;3.20;;
61477;SDS011;47345;52.334;10.392;2024-01-15T09:02:57;3.90;;;2.70;;
61477;SDS011;47345;52.334;10.392;2024-01-15T09:05:28;5.10;;;2.50;;
61477;SDS011;47345;52.334;10.392;2024-01-15T09:07:58;5.70;;;3.00;;
61477;SDS011;47345;52.334;10.392;2024-01-15T09:10:29;5.80;;;2.50;;
61477;SDS011;47345;52.334;10.392;2024-01-15T09:13:00;6.00;;;2.60;;
61477;SDS011;47345;52.334;10.392;2024-01-15T09:15:31;4.50;;;2.50;;
61477;SDS011;47345;52.334;10.392;2024-01-15T09:18:02;5.10;;;2.10;;
61477;SDS011;47345;52.334;10.392;2024-01-15T09:20:35;6.20;;;2.60;;
61477;SDS011;47345;52.334;10.392;2024-01-15T09:23:06;5.10;;;2.20;;
61477;SDS011;47345;52.334;10.392;2024-01-15T09:25:36;3.60;;;2.20;;
61477;SDS011;47345;52.334;10.392;2024-01-15T09:28:07;6.20;;;2.30;;
61477;SDS011;47345;52.334;10.392;2024-01-15T09:30:38;5.20;;;2.20;;
61477;SDS011;47345;52.334;10.392;2024-01-15T09:33:08;6.10;;;2.00;;
61477;SDS011;47345;52.334;10.392;2024-01-15T09:35:39;2.60;;;1.80;;
61477;SDS011;47345;52.334;10.392;2024-01-15T09:38:09;4.30;;;2.00;;
61477;SDS011;47345;52.334;10.392;2024-01-15T09:40:40;3.60;;;2.80;;
61477;SDS011;47345;52.334;10.392;2024-01-15T09:43:14;2.30;;;1.90;;
61477;SDS011;47345;52.334;10.392;2024-01-15T09:45:45;3.30;;;2.00;;
61477;SDS011;47345;52.334;10.392;2024-01-15T09:48:18;2.60;;;1.60;;
61477;SDS011;47345;52.334;10.392;2024-01-15T09:50:48;5.30;;;2.20;;
61477;SDS011;47345;52.334;10.392;2024-01-15T09:53:19;2.40;;;1.70;;
61477;SDS011;47345;52.334;10.392;2024-01-15T09:55:51;2.50;;;1.80;;
61477;SDS011;47345;52.334;10.392;2024-01-15T09:58:23;3.70;;;2.10;;
61477;SDS011;47345;52.334;10.392;2024-01-15T10:00:53;3.80;;;2.20;;
61477;SDS011;47345;52.334;10.392;2024-01-15T10:03:25;6.80;;;2.40;;
61477;SDS011;47345;52.334;10.392;2024-01-15T10:05:55;7.80;;;2.40;;
61477;SDS011;47345;52.334;10.392;2024-01-15T10:08:29;5.60;;;2.70;;
61477;SDS011;47345;52.334;10.392;2024-01-15T10:11:00;7.10;;;2.40;;
61477;SDS011;47345;52.334;10.392;2024-01-15T10:13:32;6.00;;;2.30;;
61477;SDS011;47345;52.334;10.392;2024-01-15T10:16:05;2.50;;;1.90;;
61477;SDS011;47345;52.334;10.392;2024-01-15T10:18:35;5.00;;;2.30;;
61477;SDS011;47345;52.334;10.392;2024-01-15T10:21:07;2.80;;;2.00;;
61477;SDS011;47345;52.334;10.392;2024-01-15T10:23:37;6.80;;;2.60;;
61477;SDS011;47345;52.334;10.392;2024-01-15T10:26:08;2.60;;;2.10;;
61477;SDS011;47345;52.334;10.392;2024-01-15T10:28:41;5.80;;;2.40;;
61477;SDS011;47345;52.334;10.392;2024-01-15T10:31:12;3.00;;;2.00;;
61477;SDS011;47345;52.334;10.392;2024-01-15T10:33:43;4.70;;;1.90;;
61477;SDS011;47345;52.334;10.392;2024-01-15T10:36:14;8.10;;;2.40;;
61477;SDS011;47345;52.334;10.392;2024-01-15T10:38:46;4.90;;;2.60;;
61477;SDS011;47345;52.334;10.392;2024-01-15T10:41:17;3.60;;;2.40;;
61477;SDS011;47345;52.334;10.392;2024-01-15T10:43:47;8.60;;;2.40;;
61477;SDS011;47345;52.334;10.392;2024-01-15T10:46:18;6.40;;;2.40;;
61477;SDS011;47345;52.334;10.392;2024-01-15T10:48:48;7.40;;;2.30;;
61477;SDS011;47345;52.334;10.392;2024-01-15T10:51:20;4.20;;;1.80;;
61477;SDS011;47345;52.334;10.392;2024-01-15T10:53:51;4.40;;;1.90;;
61477;SDS011;47345;52.334;10.392;2024-01-15T10:56:23;3.40;;;2.30;;
61477;SDS011;47345;52.334;10.392;2024-01-15T10:58:56;4.40;;;2.00;;
61477;SDS011;47345;52.334;10.392;2024-01-15T11:01:28;4.40;;;2.00;;
61477;SDS011;47345;52.334;10.392;2024-01-15T11:03:59;4.30;;;2.10;;
61477;SDS011;47345;52.334;10.392;2024-01-15T11:06:41;2.50;;;2.10;;
61477;SDS011;47345;52.334;10.392;2024-01-15T11:09:13;4.70;;;1.80;;
61477;SDS011;47345;52.334;10.392;2024-01-15T11:11:46;6.90;;;3.40;;
61477;SDS011;47345;52.334;10.392;2024-01-15T11:17:16;5.20;;;2.20;;
61477;SDS011;47345;52.334;10.392;2024-01-15T11:19:47;2.90;;;2.10;;
61477;SDS011;47345;52.334;10.392;2024-01-15T11:25:17;6.20;;;2.40;;
61477;SDS011;47345;52.334;10.392;2024-01-15T11:27:49;5.80;;;2.50;;
61477;SDS011;47345;52.334;10.392;2024-01-15T11:30:24;5.50;;;2.20;;
61477;SDS011;47345;52.334;10.392;2024-01-15T11:32:55;6.00;;;2.90;;
61477;SDS011;47345;52.334;10.392;2024-01-15T11:35:25;8.20;;;2.70;;
61477;SDS011;47345;52.334;10.392;2024-01-15T11:38:28;3.40;;;2.10;;
61477;SDS011;47345;52.334;10.392;2024-01-15T11:40:59;4.70;;;2.00;;
61477;SDS011;47345;52.334;10.392;2024-01-15T11:43:29;2.10;;;1.80;;
61477;SDS011;47345;52.334;10.392;2024-01-15T11:46:01;6.40;;;2.30;;
61477;SDS011;47345;52.334;10.392;2024-01-15T11:48:34;4.50;;;1.90;;
61477;SDS011;47345;52.334;10.392;2024-01-15T11:51:13;6.20;;;2.20;;
61477;SDS011;47345;52.334;10.392;2024-01-15T11:53:48;7.90;;;2.60;;
61477;SDS011;47345;52.334;10.392;2024-01-15T11:56:23;4.30;;;2.10;;
61477;SDS011;47345;52.334;10.392;2024-01-15T11:58:54;4.30;;;2.10;;
61477;SDS011;47345;52.334;10.392;2024-01-15T12:01:25;4.00;;;1.90;;
61477;SDS011;47345;52.334;10.392;2024-01-15T12:03:55;5.10;;;1.90;;
61477;SDS011;47345;52.334;10.392;2024-01-15T12:06:26;4.70;;;1.90;;
61477;SDS011;47345;52.334;10.392;2024-01-15T12:09:06;4.40;;;2.00;;
61477;SDS011;47345;52.334;10.392;2024-01-15T12:11:37;4.70;;;2.00;;
61477;SDS011;47345;52.334;10.392;2024-01-15T12:14:12;2.30;;;1.50;;
61477;SDS011;47345;52.334;10.392;2024-01-15T12:16:43;6.20;;;2.00;;
61477;SDS011;47345;52.334;10.392;2024-01-15T12:19:14;5.30;;;2.00;;
61477;SDS011;47345;52.334;10.392;2024-01-15T12:21:45;5.10;;;2.20;;
61477;SDS011;47345;52.334;10.392;2024-01-15T12:24:17;1.60;;;1.50;;
61477;SDS011;47345;52.334;10.392;2024-01-15T12:26:48;4.50;;;1.80;;
61477;SDS011;47345;52.334;10.392;2024-01-15T12:29:18;5.00;;;2.40;;
61477;SDS011;47345;52.334;10.392;2024-01-15T12:31:50;3.20;;;1.80;;
61477;SDS011;47345;52.334;10.392;2024-01-15T12:34:23;2.90;;;1.70;;
61477;SDS011;47345;52.334;10.392;2024-01-15T12:36:58;5.00;;;1.50;;
61477;SDS011;47345;52.334;10.392;2024-01-15T12:39:29;7.00;;;2.50;;
61477;SDS011;47345;52.334;10.392;2024-01-15T12:42:00;4.10;;;2.10;;
61477;SDS011;47345;52.334;10.392;2024-01-15T12:44:32;6.30;;;2.30;;
61477;SDS011;47345;52.334;10.392;2024-01-15T12:47:03;5.00;;;2.10;;
61477;SDS011;47345;52.334;10.392;2024-01-15T12:49:38;9.30;;;2.50;;
61477;SDS011;47345;52.334;10.392;2024-01-15T12:52:09;9.10;;;2.30;;
61477;SDS011;47345;52.334;10.392;2024-01-15T12:54:39;5.00;;;2.10;;
61477;SDS011;47345;52.334;10.392;2024-01-15T12:57:10;6.60;;;2.70;;
61477;SDS011;47345;52.334;10.392;2024-01-15T12:59:41;6.90;;;2.40;;
61477;SDS011;47345;52.334;10.392;2024-01-15T13:02:12;6.90;;;2.10;;
61477;SDS011;47345;52.334;10.392;2024-01-15T13:04:43;5.40;;;1.90;;
61477;SDS011;47345;52.334;10.392;2024-01-15T13:07:14;5.20;;;2.10;;
61477;SDS011;47345;52.334;10.392;2024-01-15T13:09:44;7.70;;;2.30;;
61477;SDS011;47345;52.334;10.392;2024-01-15T13:12:15;9.00;;;3.00;;
61477;SDS011;47345;52.334;10.392;2024-01-15T13:14:45;6.20;;;2.30;;
61477;SDS011;47345;52.334;10.392;2024-01-15T13:17:16;7.80;;;2.50;;
61477;SDS011;47345;52.334;10.392;2024-01-15T13:19:48;8.10;;;2.00;;
61477;SDS011;47345;52.334;10.392;2024-01-15T13:22:20;3.60;;;2.10;;
61477;SDS011;47345;52.334;10.392;2024-01-15T13:24:52;6.60;;;2.60;;
61477;SDS011;47345;52.334;10.392;2024-01-15T13:27:23;3.90;;;2.10;;
61477;SDS011;47345;52.334;10.392;2024-01-15T13:29:56;5.40;;;2.50;;
61477;SDS011;47345;52.334;10.392;2024-01-15T13:32:28;5.00;;;2.30;;
61477;SDS011;47345;52.334;10.392;2024-01-15T13:34:59;8.20;;;2.20;;
61477;SDS011;47345;52.334;10.392;2024-01-15T13:37:30;5.30;;;2.40;;
61477;SDS011;47345;52.334;10.392;2024-01-15T13:40:01;9.60;;;2.70;;
61477;SDS011;47345;52.334;10.392;2024-01-15T13:42:32;8.80;;;2.20;;
61477;SDS011;47345;52.334;10.392;2024-01-15T13:45:06;6.90;;;2.20;;
61477;SDS011;47345;52.334;10.392;2024-01-15T13:47:37;4.10;;;1.90;;
61477;SDS011;47345;52.334;10.392;2024-01-15T13:50:09;4.40;;;2.10;;
61477;SDS011;47345;52.334;10.392;2024-01-15T13:52:39;8.50;;;2.50;;
61477;SDS011;47345;52.334;10.392;2024-01-15T13:55:10;3.80;;;1.80;;
61477;SDS011;47345;52.334;10.392;2024-01-15T13:57:41;6.70;;;2.20;;
61477;SDS011;47345;52.334;10.392;2024-01-15T14:00:12;2.40;;;1.90;;
61477;SDS011;47345;52.334;10.392;2024-01-15T14:02:47;5.30;;;2.80;;
61477;SDS011;47345;52.334;10.392;2024-01-15T14:05:18;5.10;;;1.80;;
61477;SDS011;47345;52.334;10.392;2024-01-15T14:07:49;4.60;;;2.40;;
61477;SDS011;47345;52.334;10.392;2024-01-15T14:10:19;4.60;;;2.00;;
61477;SDS011;47345;52.334;10.392;2024-01-15T14:12:50;5.10;;;2.40;;
61477;SDS011;47345;52.334;10.392;2024-01-15T14:15:20;5.10;;;2.40;;
61477;SDS011;47345;52.334;10.392;2024-01-15T14:17:51;7.50;;;2.60;;
61477;SDS011;47345;52.334;10.392;2024-01-15T14:20:21;5.00;;;2.80;;
61477;SDS011;47345;52.334;10.392;2024-01-15T14:22:52;7.20;;;2.80;;
61477;SDS011;47345;52.334;10.392;2024-01-15T14:25:23;2.10;;;1.90;;
61477;SDS011;47345;52.334;10.392;2024-01-15T14:27:53;3.70;;;2.20;;
61477;SDS011;47345;52.334;10.392;2024-01-15T14:30:24;3.80;;;2.40;;
61477;SDS011;47345;52.334;10.392;2024-01-15T14:32:55;5.20;;;2.30;;
61477;SDS011;47345;52.334;10.392;2024-01-15T14:35:25;3.00;;;1.80;;
61477;SDS011;47345;52.334;10.392;2024-01-15T14:37:56;3.60;;;2.20;;
61477;SDS011;47345;52.334;10.392;2024-01-15T14:40:27;2.80;;;2.00;;
61477;SDS011;47345;52.334;10.392;2024-01-15T14:42:58;9.20;;;2.80;;
61477;SDS011;47345;52.334;10.392;2024-01-15T14:45:28;7.00;;;2.70;;
61477;SDS011;47345;52.334;10.392;2024-01-15T14:47:59;3.90;;;2.30;;
61477;SDS011;47345;52.334;10.392;2024-01-15T14:50:30;8.00;;;2.70;;
61477;SDS011;47345;52.334;10.392;2024-01-15T14:53:00;6.80;;;2.60;;
61477;SDS011;47345;52.334;10.392;2024-01-15T14:55:31;6.80;;;2.60;;
61477;SDS011;47345;52.334;10.392;2024-01-15T14:58:01;3.70;;;2.50;;
61477;SDS011;47345;52.334;10.392;2024-01-15T15:00:32;5.00;;;2.40;;
61477;SDS011;47345;52.334;10.392;2024-01-15T15:03:03;5.90;;;2.40;;